Time;durP1;ratioP1;P1;durP2;ratioP2;P2;SDS_P1;SDS_P2;PMS_P1;PMS_P2;Temp;Humidity;BMP_temperature;BMP_pressure;BME280_temperature;BME280_humidity;BME280_pressure;Samples;Min_cycle;Max_cycle;Signal;HPM_P1;HPM_P2
2022/03/19 00:00:14;;;;;;;;;;;;;;;;;;5048397;28;19936;-61
2022/03/19 00:02:41;;;;;;;;;;;;;;;;;;5050044;28;20318;-60
2022/03/19 00:05:07;;;;;;;;;;;;;;;;;;5041656;28;20023;-61
2022/03/19 00:07:34;;;;;;;;;;;;;;;;;;5062489;22;19916;-60
2022/03/19 00:10:00;;;;;;;;;;;;;;;;;;5064836;28;19930;-60
2022/03/19 00:12:26;;;;;;;;;;;;;;;;;;5069288;28;20186;-60
2022/03/19 00:14:52;;;;;;;;;;;;;;;;;;5068857;28;19936;-59
2022/03/19 00:17:18;;;;;;;;;;;;;;;;;;5062958;28;19958;-61
2022/03/19 00:19:44;;;;;;;;;;;;;;;;;;5065273;28;19924;-59
2022/03/19 00:22:10;;;;;;;;;;;;;;;;;;5067081;28;20231;-59
2022/03/19 00:24:37;;;;;;;;;;;;;;;;;;5070458;28;19933;-60
2022/03/19 00:27:03;;;;;;;;;;;;;;;;;;5072918;28;19924;-60
2022/03/19 00:29:29;;;;;;;;;;;;;;;;;;5075824;28;19924;-60
2022/03/19 00:31:55;;;;;;;;;;;;;;;;;;5073321;28;19965;-59
2022/03/19 00:34:22;;;;;;;;;;;;;;;;;;5073982;28;19944;-58
2022/03/19 00:36:48;;;;;;;;;;;;;;;;;;5072001;28;19925;-59
2022/03/19 00:39:15;;;;;;;;;;;;;;;;;;5075036;28;19947;-58
2022/03/19 00:41:41;;;;;;;;;;;;;;;;;;5070421;28;20115;-59
2022/03/19 00:44:07;;;;;;;;;;;;;;;;;;5074604;28;20023;-60
2022/03/19 00:46:33;;;;;;;;;;;;;;;;;;5072279;28;19968;-58
2022/03/19 00:49:00;;;;;;;;;;;;;;;;;;5071927;28;19940;-58
2022/03/19 00:51:26;;;;;;;;;;;;;;;;;;5067707;28;20042;-59
2022/03/19 00:53:52;;;;;;;;;;;;;;;;;;5066084;28;19932;-59
2022/03/19 00:56:18;;;;;;;;;;;;;;;;;;5073971;28;19940;-59
2022/03/19 00:58:44;;;;;;;;;;;;;;;;;;5068687;28;19932;-59
2022/03/19 01:01:10;;;;;;;;;;;;;;;;;;5067227;28;19936;-58
2022/03/19 01:03:36;;;;;;;;;;;;;;;;;;5068076;28;19978;-59
2022/03/19 01:06:02;;;;;;;;;;;;;;;;;;5067083;28;19929;-59
2022/03/19 01:08:29;;;;;;;;;;;;;;;;;;5068186;28;20392;-59
2022/03/19 01:10:55;;;;;;;;;;;;;;;;;;5068162;28;20070;-63
2022/03/19 01:13:21;;;;;;;;;;;;;;;;;;5064825;28;20208;-61
2022/03/19 01:15:47;;;;;;;;;;;;;;;;;;5071859;28;19924;-61
2022/03/19 01:18:13;;;;;;;;;;;;;;;;;;5066510;28;19932;-61
2022/03/19 01:20:40;;;;;;;;;;;;;;;;;;5061368;28;20249;-61
2022/03/19 01:23:06;;;;;;;;;;;;;;;;;;5051039;28;19934;-61
2022/03/19 01:25:32;;;;;;;;;;;;;;;;;;5053414;28;19929;-61
2022/03/19 01:27:58;;;;;;;;;;;;;;;;;;5060867;28;19924;-61
2022/03/19 01:30:24;;;;;;;;;;;;;;;;;;5057998;28;19924;-64
2022/03/19 01:32:51;;;;;;;;;;;;;;;;;;5058458;28;20239;-64
2022/03/19 01:35:17;;;;;;;;;;;;;;;;;;5050959;28;20416;-64
2022/03/19 01:37:43;;;;;;;;;;;;;;;;;;5050606;28;20321;-64
2022/03/19 01:40:09;;;;;;;;;;;;;;;;;;5063941;28;19925;-64
2022/03/19 01:42:35;;;;;;;;;;;;;;;;;;5057409;28;19947;-64
2022/03/19 01:45:01;;;;;;;;;;;;;;;;;;5061561;28;20120;-64
2022/03/19 01:47:28;;;;;;;;;;;;;;;;;;5057438;28;19975;-64
2022/03/19 01:49:54;;;;;;;;;;;;;;;;;;5063349;28;20490;-65
2022/03/19 01:52:20;;;;;;;;;;;;;;;;;;5066734;28;20381;-65
2022/03/19 01:54:46;;;;;;;;;;;;;;;;;;5066572;28;20357;-65
2022/03/19 01:57:13;;;;;;;;;;;;;;;;;;5067518;28;19925;-61
2022/03/19 01:59:39;;;;;;;;;;;;;;;;;;5067437;28;19936;-61
2022/03/19 02:02:05;;;;;;;;;;;;;;;;;;5071368;28;20208;-61
2022/03/19 02:04:31;;;;;;;;;;;;;;;;;;5069275;28;20179;-61
2022/03/19 02:06:57;;;;;;;;;;;;;;;;;;5066672;28;19924;-61
2022/03/19 02:09:23;;;;;;;;;;;;;;;;;;5065580;28;19928;-61
2022/03/19 02:11:49;;;;;;;;;;;;;;;;;;5067411;28;19933;-60
2022/03/19 02:14:15;;;;;;;;;;;;;;;;;;5070040;28;19933;-61
2022/03/19 02:16:42;;;;;;;;;;;;;;;;;;5060959;28;19932;-61
2022/03/19 02:19:08;;;;;;;;;;;;;;;;;;5070217;28;19955;-61
2022/03/19 02:21:34;;;;;;;;;;;;;;;;;;5061945;28;19924;-61
2022/03/19 02:26:44;;;;;;;;;;;;;;;;;;5069753;28;19919;-60
2022/03/19 02:29:10;;;;;;;;;;;;;;;;;;5073636;28;19928;-60
2022/03/19 02:31:36;;;;;;;;;;;;;;;;;;5069420;28;19924;-61
2022/03/19 02:34:02;;;;;;;;;;;;;;;;;;5067206;28;20373;-60
2022/03/19 02:36:28;;;;;;;;;;;;;;;;;;5064156;28;20396;-61
2022/03/19 02:38:54;;;;;;;;;;;;;;;;;;5068175;28;19924;-61
2022/03/19 02:41:21;;;;;;;;;;;;;;;;;;5071082;28;19947;-63
2022/03/19 02:43:48;;;;;;;;;;;;;;;;;;5069199;28;19924;-63
2022/03/19 02:46:15;;;;;;;;;;;;;;;;;;5066965;28;19998;-60
2022/03/19 02:48:41;;;;;;;;;;;;;;;;;;5070081;28;19928;-63
2022/03/19 02:51:08;;;;;;;;;;;;;;;;;;5064705;28;20432;-61
2022/03/19 02:53:34;;;;;;;;;;;;;;;;;;5066687;28;19968;-63
2022/03/19 02:56:00;;;;;;;;;;;;;;;;;;5067682;28;19932;-59
2022/03/19 02:58:26;;;;;;;;;;;;;;;;;;5060033;28;19947;-59
2022/03/19 03:00:52;;;;;;;;;;;;;;;;;;5065872;28;20325;-59
2022/03/19 03:03:19;;;;;;;;;;;;;;;;;;5066828;28;19924;-59
2022/03/19 03:05:45;;;;;;;;;;;;;;;;;;5070051;28;19924;-58
2022/03/19 03:08:11;;;;;;;;;;;;;;;;;;5066246;28;19955;-59
2022/03/19 03:10:37;;;;;;;;;;;;;;;;;;5065323;28;19950;-59
2022/03/19 03:13:03;;;;;;;;;;;;;;;;;;5068273;28;20035;-59
2022/03/19 03:15:29;;;;;;;;;;;;;;;;;;5068409;28;20273;-59
2022/03/19 03:17:56;;;;;;;;;;;;;;;;;;5073056;28;20273;-59
2022/03/19 03:20:22;;;;;;;;;;;;;;;;;;5057894;28;19931;-59
2022/03/19 03:22:48;;;;;;;;;;;;;;;;;;5049306;28;19924;-59
2022/03/19 03:25:14;;;;;;;;;;;;;;;;;;5059217;28;19936;-59
2022/03/19 03:27:40;;;;;;;;;;;;;;;;;;5055757;28;20464;-59
2022/03/19 03:30:06;;;;;;;;;;;;;;;;;;5055398;28;20350;-58
2022/03/19 03:32:32;;;;;;;;;;;;;;;;;;5068413;28;20619;-59
2022/03/19 03:34:58;;;;;;;;;;;;;;;;;;5059431;28;20401;-60
2022/03/19 03:37:25;;;;;;;;;;;;;;;;;;5049041;28;20001;-59
2022/03/19 03:39:51;;;;;;;;;;;;;;;;;;5062036;28;19936;-59
2022/03/19 03:42:17;;;;;;;;;;;;;;;;;;5052560;28;19929;-59
2022/03/19 03:44:43;;;;;;;;;;;;;;;;;;5061914;28;19929;-59
2022/03/19 03:47:09;;;;;;;;;;;;;;;;;;5057284;28;19925;-58
2022/03/19 03:49:35;;;;;;;;;;;;;;;;;;5062198;28;19978;-59
2022/03/19 03:52:02;;;;;;;;;;;;;;;;;;5062337;28;19951;-60
2022/03/19 03:54:28;;;;;;;;;;;;;;;;;;5069792;28;19928;-60
2022/03/19 03:56:54;;;;;;;;;;;;;;;;;;5063500;28;19935;-60
2022/03/19 03:59:23;;;;;;;;;;;;;;;;;;5066368;28;19932;-61
2022/03/19 04:01:49;;;;;;;;;;;;;;;;;;5064842;28;20441;-60
2022/03/19 04:04:15;;;;;;;;;;;;;;;;;;5064282;28;19928;-58
2022/03/19 04:06:41;;;;;;;;;;;;;;;;;;5067531;28;19936;-58
2022/03/19 04:09:07;;;;;;;;;;;;;;;;;;5067241;28;20377;-58
2022/03/19 04:11:33;;;;;;;;;;;;;;;;;;5068416;28;19928;-58
2022/03/19 04:14:00;;;;;;;;;;;;;;;;;;5063210;28;20262;-57
2022/03/19 04:16:26;;;;;;;;;;;;;;;;;;5061518;28;19929;-58
2022/03/19 04:18:52;;;;;;;;;;;;;;;;;;5064262;28;19951;-58
2022/03/19 04:21:18;;;;;;;;;;;;;;;;;;5067852;28;19925;-58
2022/03/19 04:23:45;;;;;;;;;;;;;;;;;;5065039;28;20076;-58
2022/03/19 04:26:11;;;;;;;;;;;;;;;;;;5068728;28;19968;-58
2022/03/19 04:28:37;;;;;;;;;;;;;;;;;;5064528;28;19925;-58
2022/03/19 04:31:03;;;;;;;;;;;;;;;;;;5075878;28;19927;-60
2022/03/19 04:33:29;;;;;;;;;;;;;;;;;;5054660;28;19925;-59
2022/03/19 04:38:40;;;;;;;;;;;;;;;;;;5066276;28;19973;-60
2022/03/19 04:41:06;;;;;;;;;;;;;;;;;;5070567;28;20427;-59
2022/03/19 04:43:32;;;;;;;;;;;;;;;;;;5072809;28;20417;-59
2022/03/19 04:45:58;;;;;;;;;;;;;;;;;;5079351;28;19954;-58
2022/03/19 04:48:27;;;;;;;;;;;;;;;;;;5068365;28;19931;-58
2022/03/19 04:50:53;;;;;;;;;;;;;;;;;;5077406;28;19935;-58
2022/03/19 04:53:20;;;;;;;;;;;;;;;;;;5065488;28;19938;-57
2022/03/19 04:55:46;;;;;;;;;;;;;;;;;;5065936;28;19946;-57
2022/03/19 04:58:12;;;;;;;;;;;;;;;;;;5080128;28;19924;-57
2022/03/19 05:00:38;;;;;;;;;;;;;;;;;;5075777;28;19924;-57
2022/03/19 05:03:04;;;;;;;;;;;;;;;;;;5069445;28;19936;-58
2022/03/19 05:05:31;;;;;;;;;;;;;;;;;;5070100;28;19924;-58
2022/03/19 05:07:57;;;;;;;;;;;;;;;;;;5066438;28;19929;-58
2022/03/19 05:13:07;;;;;;;;;;;;;;;;;;5068551;28;20433;-58
2022/03/19 05:15:33;;;;;;;;;;;;;;;;;;5068727;28;19928;-59
2022/03/19 05:18:00;;;;;;;;;;;;;;;;;;5067542;28;19924;-59
2022/03/19 05:20:26;;;;;;;;;;;;;;;;;;5068717;28;19932;-59
2022/03/19 05:22:52;;;;;;;;;;;;;;;;;;5052571;28;19940;-59
2022/03/19 05:25:18;;;;;;;;;;;;;;;;;;5050814;28;19932;-59
2022/03/19 05:27:44;;;;;;;;;;;;;;;;;;5058762;28;20307;-59
2022/03/19 05:30:10;;;;;;;;;;;;;;;;;;5057646;28;19973;-58
2022/03/19 05:32:36;;;;;;;;;;;;;;;;;;5070616;28;19958;-58
2022/03/19 05:35:03;;;;;;;;;;;;;;;;;;5067450;28;19940;-58
2022/03/19 05:37:29;;;;;;;;;;;;;;;;;;5051321;28;19932;-58
2022/03/19 05:39:55;;;;;;;;;;;;;;;;;;5063349;28;19971;-60
2022/03/19 05:42:21;;;;;;;;;;;;;;;;;;5059264;28;19957;-59
2022/03/19 05:44:48;;;;;;;;;;;;;;;;;;5059364;28;20023;-59
2022/03/19 05:47:14;;;;;;;;;;;;;;;;;;5060170;28;19929;-59
2022/03/19 05:49:40;;;;;;;;;;;;;;;;;;5054485;28;19924;-58
2022/03/19 05:52:06;;;;;;;;;;;;;;;;;;5050224;28;20012;-61
2022/03/19 05:54:32;;;;;;;;;;;;;;;;;;5059618;28;19924;-61
2022/03/19 05:56:58;;;;;;;;;;;;;;;;;;5068492;28;19925;-59
2022/03/19 05:59:25;;;;;;;;;;;;;;;;;;5067304;28;20382;-61
2022/03/19 06:01:51;;;;;;;;;;;;;;;;;;5071059;28;19925;-59
2022/03/19 06:04:19;;;;;;;;;;;;;;;;;;5065225;28;20354;-59
2022/03/19 06:06:45;;;;;;;;;;;;;;;;;;5069215;28;19932;-59
2022/03/19 06:09:11;;;;;;;;;;;;;;;;;;5076030;22;19928;-61
2022/03/19 06:11:38;;;;;;;;;;;;;;;;;;5037717;28;19959;-63
2022/03/19 06:14:04;;;;;;;;;;;;;;;;;;5042759;28;19925;-63
2022/03/19 06:16:30;;;;;;;;;;;;;;;;;;5039369;28;19948;-64
2022/03/19 06:18:56;;;;;;;;;;;;;;;;;;5036940;28;19973;-64
2022/03/19 06:21:23;;;;;;;;;;;;;;;;;;5044351;28;19968;-64
2022/03/19 06:23:49;;;;;;;;;;;;;;;;;;5036511;28;20012;-62
2022/03/19 06:26:16;;;;;;;;;;;;;;;;;;5043978;28;19939;-64
2022/03/19 06:28:42;;;;;;;;;;;;;;;;;;5043910;28;19925;-64
2022/03/19 06:31:08;;;;;;;;;;;;;;;;;;5042482;28;19982;-63
2022/03/19 06:33:34;;;;;;;;;;;;;;;;;;5034939;28;20504;-64
2022/03/19 06:38:44;;;;;;;;;;;;;;;;;;5035932;28;19924;-63
2022/03/19 06:41:10;;;;;;;;;;;;;;;;;;5040044;28;19924;-62
2022/03/19 06:43:37;;;;;;;;;;;;;;;;;;5037754;28;19931;-62
2022/03/19 06:46:03;;;;;;;;;;;;;;;;;;5039688;28;19968;-61
2022/03/19 06:48:29;;;;;;;;;;;;;;;;;;5035922;28;19967;-61
2022/03/19 06:50:55;;;;;;;;;;;;;;;;;;5042189;28;19924;-60
2022/03/19 06:53:21;;;;;;;;;;;;;;;;;;5038105;28;19925;-60
2022/03/19 06:55:48;;;;;;;;;;;;;;;;;;5043127;28;19972;-62
2022/03/19 06:58:14;;;;;;;;;;;;;;;;;;5040153;28;20140;-61
2022/03/19 07:00:41;;;;;;;;;;;;;;;;;;5042059;28;20329;-60
2022/03/19 07:03:07;;;;;;;;;;;;;;;;;;5034818;28;20018;-60
2022/03/19 07:05:33;;;;;;;;;;;;;;;;;;5041379;28;19928;-59
2022/03/19 07:07:59;;;;;;;;;;;;;;;;;;5038552;28;19925;-60
2022/03/19 07:10:26;;;;;;;;;;;;;;;;;;5036573;28;20381;-59
2022/03/19 07:12:52;;;;;;;;;;;;;;;;;;5038745;28;20083;-60
2022/03/19 07:15:19;;;;;;;;;;;;;;;;;;5042030;28;19928;-59
2022/03/19 07:17:45;;;;;;;;;;;;;;;;;;5029581;28;20012;-60
2022/03/19 07:20:11;;;;;;;;;;;;;;;;;;5020337;28;20406;-60
2022/03/19 07:22:37;;;;;;;;;;;;;;;;;;5029913;28;19953;-60
2022/03/19 07:25:03;;;;;;;;;;;;;;;;;;5030265;28;19956;-60
2022/03/19 07:27:30;;;;;;;;;;;;;;;;;;5030186;28;20021;-60
2022/03/19 07:29:56;;;;;;;;;;;;;;;;;;5029974;28;20390;-59
2022/03/19 07:32:22;;;;;;;;;;;;;;;;;;5030258;28;19925;-59
2022/03/19 07:34:48;;;;;;;;;;;;;;;;;;5029815;28;19929;-59
2022/03/19 07:37:14;;;;;;;;;;;;;;;;;;5030197;28;19925;-59
2022/03/19 07:39:40;;;;;;;;;;;;;;;;;;5029658;28;19925;-59
2022/03/19 07:42:06;;;;;;;;;;;;;;;;;;5030357;28;19925;-60
2022/03/19 07:44:32;;;;;;;;;;;;;;;;;;5030915;28;19928;-60
2022/03/19 07:46:58;;;;;;;;;;;;;;;;;;5037598;28;19933;-66
2022/03/19 07:49:24;;;;;;;;;;;;;;;;;;5036617;28;19935;-60
2022/03/19 07:51:55;;;;;;;;;;;;;;;;;;5039420;28;19924;-60
2022/03/19 07:54:21;;;;;;;;;;;;;;;;;;5039168;28;20167;-60
2022/03/19 07:56:49;;;;;;;;;;;;;;;;;;5029845;28;19932;-59
2022/03/19 07:59:16;;;;;;;;;;;;;;;;;;5039357;28;19925;-60
2022/03/19 08:01:42;;;;;;;;;;;;;;;;;;5041186;28;19925;-60
2022/03/19 08:04:08;;;;;;;;;;;;;;;;;;5038859;28;19935;-61
2022/03/19 08:06:34;;;;;;;;;;;;;;;;;;5045209;28;19929;-64
2022/03/19 08:09:01;;;;;;;;;;;;;;;;;;5042283;28;20305;-64
2022/03/19 08:11:27;;;;;;;;;;;;;;;;;;5036290;28;19978;-63
2022/03/19 08:13:53;;;;;;;;;;;;;;;;;;5042333;28;19968;-63
2022/03/19 08:16:19;;;;;;;;;;;;;;;;;;5045873;28;19928;-63
2022/03/19 08:18:46;;;;;;;;;;;;;;;;;;5044954;28;19924;-62
2022/03/19 08:21:12;;;;;;;;;;;;;;;;;;5042133;28;19936;-63
2022/03/19 08:23:38;;;;;;;;;;;;;;;;;;5041895;28;20406;-64
2022/03/19 08:26:04;;;;;;;;;;;;;;;;;;5039610;28;19959;-65
2022/03/19 08:28:30;;;;;;;;;;;;;;;;;;5042273;28;19925;-64
2022/03/19 08:30:58;;;;;;;;;;;;;;;;;;5047675;28;19933;-64
2022/03/19 08:33:24;;;;;;;;;;;;;;;;;;5040896;28;20007;-64
2022/03/19 08:35:50;;;;;;;;;;;;;;;;;;5044083;28;20389;-64
2022/03/19 08:41:00;;;;;;;;;;;;;;;;;;5041789;28;20082;-66
2022/03/19 08:43:26;;;;;;;;;;;;;;;;;;5040963;28;19929;-66
2022/03/19 08:45:52;;;;;;;;;;;;;;;;;;5044489;28;19929;-64
2022/03/19 08:48:19;;;;;;;;;;;;;;;;;;5041816;28;19925;-66
2022/03/19 08:50:45;;;;;;;;;;;;;;;;;;4344473;28;10000763;-65
2022/03/19 08:53:11;;;;;;;;;;;;;;;;;;5030563;28;19996;-64
2022/03/19 08:55:37;;;;;;;;;;;;;;;;;;5038543;28;19940;-67
2022/03/19 08:58:04;;;;;;;;;;;;;;;;;;5042912;28;19936;-65
2022/03/19 09:00:30;;;;;;;;;;;;;;;;;;5042408;28;20391;-65
2022/03/19 09:02:56;;;;;;;;;;;;;;;;;;5037616;28;19937;-65
2022/03/19 09:05:22;;;;;;;;;;;;;;;;;;5043305;28;19936;-66
2022/03/19 09:07:48;;;;;;;;;;;;;;;;;;5040413;28;19933;-66
2022/03/19 09:10:14;;;;;;;;;;;;;;;;;;5039654;28;19926;-66
2022/03/19 09:12:41;;;;;;;;;;;;;;;;;;5036725;28;19929;-66
2022/03/19 09:15:07;;;;;;;;;;;;;;;;;;5039807;28;19929;-65
2022/03/19 09:17:33;;;;;;;;;;;;;;;;;;5031680;28;19947;-65
2022/03/19 09:19:59;;;;;;;;;;;;;;;;;;5032358;28;20031;-65
2022/03/19 09:22:25;;;;;;;;;;;;;;;;;;5032256;28;19925;-65
2022/03/19 09:24:52;;;;;;;;;;;;;;;;;;5031313;28;19933;-64
2022/03/19 09:27:18;;;;;;;;;;;;;;;;;;5032223;28;19932;-64
2022/03/19 09:29:44;;;;;;;;;;;;;;;;;;5031894;28;19936;-65
2022/03/19 09:32:12;;;;;;;;;;;;;;;;;;5031231;28;19931;-65
2022/03/19 09:34:38;;;;;;;;;;;;;;;;;;5031779;28;20294;-64
2022/03/19 09:37:04;;;;;;;;;;;;;;;;;;5032567;28;19926;-64
2022/03/19 09:39:30;;;;;;;;;;;;;;;;;;5031333;28;19948;-64
2022/03/19 09:41:56;;;;;;;;;;;;;;;;;;5031519;28;19925;-65
2022/03/19 09:44:22;;;;;;;;;;;;;;;;;;5031710;28;19925;-65
2022/03/19 09:46:49;;;;;;;;;;;;;;;;;;5031196;28;19932;-64
2022/03/19 09:49:15;;;;;;;;;;;;;;;;;;5031414;28;20594;-64
2022/03/19 09:51:44;;;;;;;;;;;;;;;;;;5035333;28;20424;-60
2022/03/19 09:54:10;;;;;;;;;;;;;;;;;;5033640;28;19929;-64
2022/03/19 09:56:36;;;;;;;;;;;;;;;;;;5039167;28;20019;-59
2022/03/19 09:59:02;;;;;;;;;;;;;;;;;;5044416;28;19925;-60
2022/03/19 10:01:30;;;;;;;;;;;;;;;;;;5037734;28;19925;-60
2022/03/19 10:03:56;;;;;;;;;;;;;;;;;;5043866;28;19925;-60
2022/03/19 10:09:06;;;;;;;;;;;;;;;;;;5038266;28;20051;-62
2022/03/19 10:11:32;;;;;;;;;;;;;;;;;;5037706;28;20008;-68
2022/03/19 10:13:58;;;;;;;;;;;;;;;;;;5038696;28;19932;-70
2022/03/19 10:16:25;;;;;;;;;;;;;;;;;;5036983;28;19933;-68
2022/03/19 10:18:51;;;;;;;;;;;;;;;;;;5038992;28;19925;-69
2022/03/19 10:21:18;;;;;;;;;;;;;;;;;;5033502;28;19940;-69
2022/03/19 10:23:44;;;;;;;;;;;;;;;;;;5041429;28;19925;-69
2022/03/19 10:26:11;;;;;;;;;;;;;;;;;;5033228;28;19929;-69
2022/03/19 10:28:37;;;;;;;;;;;;;;;;;;5029528;28;19982;-69
2022/03/19 10:31:03;;;;;;;;;;;;;;;;;;5018400;28;19925;-69
2022/03/19 10:33:30;;;;;;;;;;;;;;;;;;5027743;28;19987;-68
2022/03/19 10:35:56;;;;;;;;;;;;;;;;;;5030185;28;19928;-68
2022/03/19 10:38:23;;;;;;;;;;;;;;;;;;5030325;28;19925;-68
2022/03/19 10:40:51;;;;;;;;;;;;;;;;;;5030701;28;20329;-69
2022/03/19 10:43:17;;;;;;;;;;;;;;;;;;5030904;28;19929;-69
2022/03/19 10:45:43;;;;;;;;;;;;;;;;;;4338332;28;10000849;-68
2022/03/19 10:48:11;;;;;;;;;;;;;;;;;;5032881;28;19925;-68
2022/03/19 10:50:37;;;;;;;;;;;;;;;;;;5027884;28;19929;-69
2022/03/19 10:53:03;;;;;;;;;;;;;;;;;;5027274;28;19925;-70
2022/03/19 10:55:29;;;;;;;;;;;;;;;;;;5022203;28;19925;-68
2022/03/19 10:57:56;;;;;;;;;;;;;;;;;;5028558;28;20370;-68
2022/03/19 11:00:22;;;;;;;;;;;;;;;;;;5022699;28;20051;-68
2022/03/19 11:02:48;;;;;;;;;;;;;;;;;;5028093;28;19925;-68
2022/03/19 11:05:14;;;;;;;;;;;;;;;;;;5032132;28;19925;-68
2022/03/19 11:07:42;;;;;;;;;;;;;;;;;;5026339;28;19929;-68
2022/03/19 11:10:08;;;;;;;;;;;;;;;;;;5023748;28;19929;-68
2022/03/19 11:12:34;;;;;;;;;;;;;;;;;;5025682;28;20392;-68
2022/03/19 11:15:01;;;;;;;;;;;;;;;;;;5026946;28;19933;-67
2022/03/19 11:17:30;;;;;;;;;;;;;;;;;;5029157;28;19932;-68
2022/03/19 11:19:56;;;;;;;;;;;;;;;;;;5024558;28;20003;-68
2022/03/19 11:22:22;;;;;;;;;;;;;;;;;;5032654;28;19992;-68
2022/03/19 11:24:48;;;;;;;;;;;;;;;;;;5031136;28;19929;-68
2022/03/19 11:27:14;;;;;;;;;;;;;;;;;;5027170;28;19929;-68
2022/03/19 11:29:41;;;;;;;;;;;;;;;;;;5028043;28;20317;-68
2022/03/19 11:32:07;;;;;;;;;;;;;;;;;;5028052;28;20298;-67
2022/03/19 11:34:33;;;;;;;;;;;;;;;;;;5027880;28;20413;-67
2022/03/19 11:37:00;;;;;;;;;;;;;;;;;;5028779;28;20029;-68
2022/03/19 11:39:26;;;;;;;;;;;;;;;;;;5029006;28;20030;-68
2022/03/19 11:41:55;;;;;;;;;;;;;;;;;;5029483;28;19925;-68
2022/03/19 11:44:23;;;;;;;;;;;;;;;;;;5026967;28;19925;-68
2022/03/19 11:46:49;;;;;;;;;;;;;;;;;;5023979;28;19925;-68
2022/03/19 11:49:15;;;;;;;;;;;;;;;;;;5031663;28;19925;-67
2022/03/19 11:51:41;;;;;;;;;;;;;;;;;;5032814;28;19959;-67
2022/03/19 11:54:09;;;;;;;;;;;;;;;;;;5033176;28;19929;-72
2022/03/19 11:56:35;;;;;;;;;;;;;;;;;;5033350;28;19972;-68
2022/03/19 11:59:04;;;;;;;;;;;;;;;;;;5032041;28;19931;-68
2022/03/19 12:01:30;;;;;;;;;;;;;;;;;;5041454;28;19998;-68
2022/03/19 12:03:56;;;;;;;;;;;;;;;;;;5032628;28;19929;-68
2022/03/19 12:06:22;;;;;;;;;;;;;;;;;;5033137;28;19936;-68
2022/03/19 12:08:48;;;;;;;;;;;;;;;;;;5033473;28;19929;-67
2022/03/19 12:11:16;;;;;;;;;;;;;;;;;;5031871;28;19929;-69
2022/03/19 12:13:43;;;;;;;;;;;;;;;;;;5029610;28;20412;-69
2022/03/19 12:16:12;;;;;;;;;;;;;;;;;;5033138;28;19956;-68
2022/03/19 12:18:38;;;;;;;;;;;;;;;;;;5033372;28;19935;-68
2022/03/19 12:21:04;;;;;;;;;;;;;;;;;;5031808;28;19929;-68
2022/03/19 12:23:30;;;;;;;;;;;;;;;;;;5032880;28;20356;-69
2022/03/19 12:25:56;;;;;;;;;;;;;;;;;;5029991;28;19929;-69
2022/03/19 12:28:22;;;;;;;;;;;;;;;;;;5028032;28;19972;-68
2022/03/19 12:30:49;;;;;;;;;;;;;;;;;;5032463;28;19940;-69
2022/03/19 12:33:15;;;;;;;;;;;;;;;;;;5031731;28;19929;-68
2022/03/19 12:35:41;;;;;;;;;;;;;;;;;;5031391;28;19933;-69
2022/03/19 12:38:08;;;;;;;;;;;;;;;;;;5038056;28;19940;-68
2022/03/19 12:43:14;;;;;;;;;;;;;;;;;;5028769;28;20068;-68
2022/03/19 12:45:40;;;;;;;;;;;;;;;;;;5030378;28;19948;-68
2022/03/19 12:48:06;;;;;;;;;;;;;;;;;;5025324;28;21234;-68
2022/03/19 12:50:32;;;;;;;;;;;;;;;;;;5025596;28;19925;-68
2022/03/19 12:52:58;;;;;;;;;;;;;;;;;;5026402;28;20343;-67
2022/03/19 12:55:25;;;;;;;;;;;;;;;;;;5030426;28;19929;-68
2022/03/19 12:57:51;;;;;;;;;;;;;;;;;;5030526;28;19933;-68
2022/03/19 13:00:17;;;;;;;;;;;;;;;;;;5030580;28;19936;-68
2022/03/19 13:02:43;;;;;;;;;;;;;;;;;;5028174;28;19933;-68
2022/03/19 13:05:09;;;;;;;;;;;;;;;;;;5029478;28;20275;-68
2022/03/19 13:07:35;;;;;;;;;;;;;;;;;;5029872;28;19926;-67
2022/03/19 13:10:01;;;;;;;;;;;;;;;;;;5030360;28;19929;-67
2022/03/19 13:12:28;;;;;;;;;;;;;;;;;;5030355;28;19925;-66
2022/03/19 13:14:54;;;;;;;;;;;;;;;;;;5030959;28;20219;-68
2022/03/19 13:17:20;;;;;;;;;;;;;;;;;;5029320;28;19972;-66
2022/03/19 13:19:46;;;;;;;;;;;;;;;;;;5029484;28;19929;-68
2022/03/19 13:22:19;;;;;;;;;;;;;;;;;;5034141;28;19936;-68
2022/03/19 13:24:45;;;;;;;;;;;;;;;;;;5029454;28;19940;-68
2022/03/19 13:27:11;;;;;;;;;;;;;;;;;;5036315;28;19933;-67
2022/03/19 13:29:38;;;;;;;;;;;;;;;;;;5027833;28;19932;-68
2022/03/19 13:32:04;;;;;;;;;;;;;;;;;;5037119;28;20011;-68
2022/03/19 13:34:30;;;;;;;;;;;;;;;;;;5043120;28;19937;-68
2022/03/19 13:36:56;;;;;;;;;;;;;;;;;;5031735;28;19940;-68
2022/03/19 13:39:22;;;;;;;;;;;;;;;;;;5030753;28;19929;-69
2022/03/19 13:41:49;;;;;;;;;;;;;;;;;;5031969;28;19929;-67
2022/03/19 13:44:15;;;;;;;;;;;;;;;;;;5029087;28;19956;-67
2022/03/19 13:46:41;;;;;;;;;;;;;;;;;;5027880;28;19971;-68
2022/03/19 13:49:08;;;;;;;;;;;;;;;;;;5030936;28;19925;-68
2022/03/19 13:51:35;;;;;;;;;;;;;;;;;;5028881;28;20369;-68
2022/03/19 13:54:02;;;;;;;;;;;;;;;;;;5025987;28;19929;-68
2022/03/19 13:56:28;;;;;;;;;;;;;;;;;;5030061;28;19925;-67
2022/03/19 13:58:54;;;;;;;;;;;;;;;;;;5031505;28;19925;-67
2022/03/19 14:01:20;;;;;;;;;;;;;;;;;;5031782;28;19937;-68
2022/03/19 14:03:46;;;;;;;;;;;;;;;;;;5030627;28;19925;-68
2022/03/19 14:06:13;;;;;;;;;;;;;;;;;;5031297;28;19939;-68
2022/03/19 14:08:39;;;;;;;;;;;;;;;;;;5030064;28;20499;-69
2022/03/19 14:11:05;;;;;;;;;;;;;;;;;;5026582;28;19925;-68
2022/03/19 14:13:31;;;;;;;;;;;;;;;;;;5031079;28;19973;-68
2022/03/19 14:15:58;;;;;;;;;;;;;;;;;;5029522;28;19936;-68
2022/03/19 14:18:24;;;;;;;;;;;;;;;;;;5040150;28;20019;-68
2022/03/19 14:20:51;;;;;;;;;;;;;;;;;;5035965;28;19948;-68
2022/03/19 14:23:17;;;;;;;;;;;;;;;;;;5031308;28;19929;-67
2022/03/19 14:25:44;;;;;;;;;;;;;;;;;;5029712;28;20010;-67
2022/03/19 14:28:10;;;;;;;;;;;;;;;;;;5029183;28;19925;-67
2022/03/19 14:30:36;;;;;;;;;;;;;;;;;;5029811;28;19925;-68
2022/03/19 14:33:02;;;;;;;;;;;;;;;;;;5029430;28;19944;-67
2022/03/19 14:35:30;;;;;;;;;;;;;;;;;;5031115;28;20310;-67
2022/03/19 14:37:56;;;;;;;;;;;;;;;;;;5036537;28;19963;-68
2022/03/19 14:40:23;;;;;;;;;;;;;;;;;;5037692;28;19929;-67
2022/03/19 14:42:49;;;;;;;;;;;;;;;;;;5029698;28;19926;-67
2022/03/19 14:45:15;;;;;;;;;;;;;;;;;;5027311;28;19925;-68
2022/03/19 14:47:41;;;;;;;;;;;;;;;;;;5033378;28;20267;-67
2022/03/19 14:50:07;;;;;;;;;;;;;;;;;;5036207;28;19929;-67
2022/03/19 14:52:33;;;;;;;;;;;;;;;;;;5028487;28;19936;-69
2022/03/19 14:54:59;;;;;;;;;;;;;;;;;;5020099;28;19929;-66
2022/03/19 14:57:26;;;;;;;;;;;;;;;;;;5026352;28;19949;-66
2022/03/19 14:59:52;;;;;;;;;;;;;;;;;;5013781;28;20113;-67
2022/03/19 15:02:18;;;;;;;;;;;;;;;;;;5024906;28;20341;-67
2022/03/19 15:04:44;;;;;;;;;;;;;;;;;;5030583;28;19936;-67
2022/03/19 15:07:10;;;;;;;;;;;;;;;;;;5032879;28;19925;-67
2022/03/19 15:09:37;;;;;;;;;;;;;;;;;;5022538;28;20313;-67
2022/03/19 15:12:04;;;;;;;;;;;;;;;;;;5014863;28;19933;-67
2022/03/19 15:14:30;;;;;;;;;;;;;;;;;;5026994;28;19925;-67
2022/03/19 15:16:56;;;;;;;;;;;;;;;;;;5028904;28;19936;-66
2022/03/19 15:19:22;;;;;;;;;;;;;;;;;;5027353;28;19936;-66
2022/03/19 15:21:48;;;;;;;;;;;;;;;;;;5023064;28;19926;-68
2022/03/19 15:24:15;;;;;;;;;;;;;;;;;;5026889;28;19929;-67
2022/03/19 15:26:41;;;;;;;;;;;;;;;;;;5028101;28;19925;-69
2022/03/19 15:29:07;;;;;;;;;;;;;;;;;;5024149;28;20413;-67
2022/03/19 15:31:33;;;;;;;;;;;;;;;;;;5027765;28;19936;-67
2022/03/19 15:33:59;;;;;;;;;;;;;;;;;;5028130;28;19980;-66
2022/03/19 15:36:26;;;;;;;;;;;;;;;;;;5027613;28;20024;-66
2022/03/19 15:38:52;;;;;;;;;;;;;;;;;;5027317;28;19933;-66
2022/03/19 15:41:19;;;;;;;;;;;;;;;;;;5027646;28;20125;-67
2022/03/19 15:43:45;;;;;;;;;;;;;;;;;;5027482;28;20426;-67
2022/03/19 15:46:12;;;;;;;;;;;;;;;;;;5028668;28;20295;-67
2022/03/19 15:48:38;;;;;;;;;;;;;;;;;;5020270;28;20004;-66
2022/03/19 15:51:04;;;;;;;;;;;;;;;;;;5027147;28;20005;-66
2022/03/19 15:53:30;;;;;;;;;;;;;;;;;;5026942;28;20293;-66
2022/03/19 15:55:56;;;;;;;;;;;;;;;;;;5027292;28;19952;-66
2022/03/19 15:58:22;;;;;;;;;;;;;;;;;;5027480;28;19936;-67
2022/03/19 16:00:49;;;;;;;;;;;;;;;;;;5024624;28;19929;-66
2022/03/19 16:03:15;;;;;;;;;;;;;;;;;;5024526;28;19935;-66
2022/03/19 16:05:41;;;;;;;;;;;;;;;;;;5027162;28;20406;-66
2022/03/19 16:08:07;;;;;;;;;;;;;;;;;;5027359;28;20306;-66
2022/03/19 16:10:33;;;;;;;;;;;;;;;;;;5027209;28;20205;-65
2022/03/19 16:12:59;;;;;;;;;;;;;;;;;;5024073;28;20182;-66
2022/03/19 16:15:25;;;;;;;;;;;;;;;;;;5025094;28;19937;-67
2022/03/19 16:17:52;;;;;;;;;;;;;;;;;;5033290;28;19936;-66
2022/03/19 16:20:18;;;;;;;;;;;;;;;;;;5034601;28;19932;-67
2022/03/19 16:22:47;;;;;;;;;;;;;;;;;;5032196;28;19937;-66
2022/03/19 16:25:13;;;;;;;;;;;;;;;;;;5026658;28;19929;-66
2022/03/19 16:27:39;;;;;;;;;;;;;;;;;;5024506;28;19929;-66
2022/03/19 16:30:05;;;;;;;;;;;;;;;;;;5021776;28;19956;-66
2022/03/19 16:32:31;;;;;;;;;;;;;;;;;;5025249;28;19929;-66
2022/03/19 16:34:57;;;;;;;;;;;;;;;;;;5025899;28;19929;-65
2022/03/19 16:37:28;;;;;;;;;;;;;;;;;;5024235;28;20310;-66
2022/03/19 16:39:54;;;;;;;;;;;;;;;;;;5027241;28;19960;-66
2022/03/19 16:42:20;;;;;;;;;;;;;;;;;;5027634;28;19933;-65
2022/03/19 16:44:47;;;;;;;;;;;;;;;;;;5025194;28;20013;-66
2022/03/19 16:47:13;;;;;;;;;;;;;;;;;;5025352;28;19933;-66
2022/03/19 16:49:39;;;;;;;;;;;;;;;;;;5026426;28;19929;-66
2022/03/19 16:52:05;;;;;;;;;;;;;;;;;;5028554;28;20577;-66
2022/03/19 16:54:31;;;;;;;;;;;;;;;;;;5023765;28;20287;-66
2022/03/19 16:56:57;;;;;;;;;;;;;;;;;;5027922;28;19936;-66